Time;durP1;ratioP1;P1;durP2;ratioP2;P2;SDS_P1;SDS_P2;PMS_P1;PMS_P2;Temp;Humidity;BMP_temperature;BMP_pressure;BME280_temperature;BME280_humidity;BME280_pressure;Samples;Min_cycle;Max_cycle;Signal;HPM_P1;HPM_P2
2022/09/28 00:02:01;;;;;;;3.25;1.90;;;9.30;99.90;;;;;;4968648;28;20535;-72
2022/09/28 00:04:30;;;;;;;2.92;2.45;;;9.30;99.90;;;;;;4965955;28;20230;-73
2022/09/28 00:06:58;;;;;;;2.40;1.92;;;9.40;99.90;;;;;;4963856;28;20207;-72
2022/09/28 00:09:29;;;;;;;4.68;2.25;;;9.40;99.90;;;;;;5023328;22;20232;-68
2022/09/28 00:11:58;;;;;;;3.30;2.15;;;9.30;99.90;;;;;;5000653;28;20186;-69
2022/09/28 00:14:27;;;;;;;2.80;2.03;;;9.30;99.90;;;;;;4997055;28;20229;-67
2022/09/28 00:16:56;;;;;;;2.53;1.80;;;9.30;99.90;;;;;;5007868;28;20449;-68
2022/09/28 00:19:25;;;;;;;3.75;2.50;;;9.40;99.90;;;;;;5016298;28;20560;-68
2022/09/28 00:21:53;;;;;;;3.23;1.90;;;9.40;99.90;;;;;;5023571;28;20204;-69
2022/09/28 00:24:22;;;;;;;2.17;1.98;;;9.40;99.90;;;;;;5012099;28;21060;-68
2022/09/28 00:26:56;;;;;;;3.00;2.10;;;9.40;99.90;;;;;;5003018;28;20300;-69
2022/09/28 00:29:26;;;;;;;2.45;2.03;;;9.30;99.90;;;;;;4998044;28;20596;-68
2022/09/28 00:31:59;;;;;;;6.60;2.60;;;9.40;99.90;;;;;;5015935;28;20265;-69
2022/09/28 00:34:30;;;;;;;5.90;2.88;;;9.40;99.90;;;;;;5001954;28;20539;-69
2022/09/28 00:36:59;;;;;;;4.83;2.03;;;9.40;99.90;;;;;;5001395;28;20212;-70
2022/09/28 00:39:30;;;;;;;6.30;2.90;;;9.60;99.90;;;;;;5002080;28;20934;-69
2022/09/28 00:41:59;;;;;;;4.77;2.30;;;9.50;99.90;;;;;;5009592;28;20440;-68
2022/09/28 00:44:43;;;;;;;2.67;1.90;;;9.50;99.90;;;;;;5016951;28;20563;-68
2022/09/28 00:47:39;;;;;;;5.22;2.50;;;9.60;99.90;;;;;;5001436;28;20289;-69
2022/09/28 00:50:14;;;;;;;2.97;2.67;;;9.60;99.90;;;;;;4994131;28;20577;-69
2022/09/28 00:52:47;;;;;;;3.43;2.27;;;9.60;99.90;;;;;;4999014;28;20620;-69
2022/09/28 00:55:19;;;;;;;3.13;2.57;;;9.50;99.90;;;;;;5014899;28;20863;-69
2022/09/28 00:57:54;;;;;;;4.37;2.80;;;9.50;99.90;;;;;;5008724;28;20721;-69
2022/09/28 01:00:22;;;;;;;3.10;2.55;;;9.40;99.90;;;;;;4995495;28;20551;-69
2022/09/28 01:02:52;;;;;;;4.07;2.97;;;9.40;99.90;;;;;;5001593;28;20210;-69
2022/09/28 01:05:22;;;;;;;3.00;2.70;;;9.40;99.90;;;;;;4984799;28;20317;-68
2022/09/28 01:07:51;;;;;;;3.78;2.80;;;9.40;99.90;;;;;;4980757;28;20909;-69
2022/09/28 01:10:19;;;;;;;4.43;2.90;;;9.50;99.90;;;;;;5000629;28;20298;-69
2022/09/28 01:12:48;;;;;;;6.95;3.35;;;9.50;99.90;;;;;;4991260;28;20198;-68
2022/09/28 01:15:17;;;;;;;4.43;3.50;;;9.50;99.90;;;;;;4998151;28;20249;-68
2022/09/28 01:17:58;;;;;;;4.40;3.17;;;9.40;99.90;;;;;;4978370;28;20222;-69
2022/09/28 01:20:55;;;;;;;4.38;2.55;;;9.40;99.90;;;;;;4987287;28;20201;-70
2022/09/28 01:24:00;;;;;;;3.70;2.73;;;9.50;99.90;;;;;;5007796;28;20209;-69
2022/09/28 01:26:48;;;;;;;4.90;2.63;;;9.50;99.90;;;;;;4999278;28;20991;-69
2022/09/28 01:29:24;;;;;;;4.87;2.97;;;9.50;99.90;;;;;;5015177;28;20465;-69
2022/09/28 01:32:01;;;;;;;3.70;2.80;;;9.50;99.90;;;;;;4991995;28;20813;-69
2022/09/28 01:34:37;;;;;;;4.60;2.95;;;9.50;99.90;;;;;;5015490;28;20457;-69
2022/09/28 01:37:10;;;;;;;2.80;2.50;;;9.50;99.90;;;;;;4998067;28;20604;-69
2022/09/28 01:39:42;;;;;;;9.02;3.55;;;9.50;99.90;;;;;;4992990;28;20415;-69
2022/09/28 01:42:17;;;;;;;8.97;3.77;;;9.40;99.90;;;;;;4998104;28;20256;-69
2022/09/28 01:44:50;;;;;;;3.70;3.10;;;9.40;99.90;;;;;;5007730;28;20477;-69
2022/09/28 01:47:23;;;;;;;4.47;3.13;;;9.40;99.90;;;;;;4986832;28;20483;-69
2022/09/28 01:50:01;;;;;;;4.70;3.20;;;9.40;99.90;;;;;;4994788;28;20669;-69
2022/09/28 01:52:35;;;;;;;3.43;2.77;;;9.50;99.90;;;;;;4975482;28;20441;-69
2022/09/28 01:55:11;;;;;;;4.25;2.90;;;9.40;99.90;;;;;;4989301;28;20477;-69
2022/09/28 01:57:45;;;;;;;7.17;2.67;;;9.40;99.90;;;;;;5004304;28;20288;-69
2022/09/28 02:00:17;;;;;;;4.37;2.30;;;9.40;99.90;;;;;;4994634;28;20467;-69
2022/09/28 02:02:57;;;;;;;3.80;3.43;;;9.50;99.90;;;;;;5004373;28;20415;-69
2022/09/28 02:05:39;;;;;;;3.10;2.10;;;9.50;99.90;;;;;;4990496;28;20832;-69
2022/09/28 02:08:12;;;;;;;3.87;2.13;;;9.40;99.90;;;;;;5014124;28;20429;-69
2022/09/28 02:10:43;;;;;;;3.83;2.27;;;9.40;99.90;;;;;;4989908;28;20457;-69
2022/09/28 02:13:18;;;;;;;7.30;2.50;;;9.40;99.90;;;;;;4994912;28;20429;-69
2022/09/28 02:15:52;;;;;;;4.70;2.70;;;9.40;99.90;;;;;;4999484;28;20232;-69
2022/09/28 02:18:20;;;;;;;4.23;2.57;;;9.30;99.90;;;;;;5010194;28;20978;-70
2022/09/28 02:20:56;;;;;;;2.72;2.10;;;9.30;99.90;;;;;;5019058;28;20450;-69
2022/09/28 02:23:29;;;;;;;2.40;2.03;;;9.30;99.90;;;;;;5009362;28;20899;-69
2022/09/28 02:26:02;;;;;;;3.42;2.05;;;9.30;99.90;;;;;;4991972;28;20280;-69
2022/09/28 02:28:32;;;;;;;2.80;2.37;;;9.40;99.90;;;;;;4997615;28;20218;-68
2022/09/28 02:31:01;;;;;;;2.63;2.23;;;9.50;99.90;;;;;;4997808;28;20425;-70
2022/09/28 02:33:34;;;;;;;4.80;3.10;;;9.50;99.90;;;;;;5000652;28;20439;-67
2022/09/28 02:36:03;;;;;;;6.67;3.23;;;9.50;99.90;;;;;;5028671;28;20467;-68
2022/09/28 02:38:37;;;;;;;4.03;2.90;;;9.60;99.90;;;;;;5009698;28;20492;-69
2022/09/28 02:41:11;;;;;;;5.43;2.93;;;9.50;99.90;;;;;;4995164;28;20412;-69
2022/09/28 02:43:53;;;;;;;3.83;3.47;;;9.40;99.90;;;;;;4995663;28;20859;-69
2022/09/28 02:46:30;;;;;;;5.88;2.75;;;9.40;99.90;;;;;;4994170;28;20449;-69
2022/09/28 02:49:21;;;;;;;6.13;3.22;;;9.40;99.90;;;;;;4994684;28;20224;-68
2022/09/28 02:52:13;;;;;;;7.13;4.25;;;9.40;99.90;;;;;;4994240;28;20201;-69
2022/09/28 02:55:06;;;;;;;4.07;2.83;;;9.30;99.90;;;;;;5014478;28;20214;-70
2022/09/28 02:57:48;;;;;;;16.42;4.35;;;9.20;99.90;;;;;;4998550;28;20284;-70
2022/09/28 03:00:21;;;;;;;7.28;4.15;;;9.20;99.90;;;;;;5000026;28;20208;-68
2022/09/28 03:03:01;;;;;;;7.00;4.50;;;9.20;99.90;;;;;;4993396;28;20201;-69
2022/09/28 03:05:42;;;;;;;8.30;4.18;;;9.20;99.90;;;;;;4985082;28;20221;-69
2022/09/28 03:08:21;;;;;;;5.72;3.75;;;9.20;99.90;;;;;;4993517;28;20197;-70
2022/09/28 03:10:54;;;;;;;9.40;4.33;;;9.10;99.90;;;;;;4980282;28;20216;-69
2022/09/28 03:13:24;;;;;;;3.80;3.30;;;9.10;99.90;;;;;;4993871;28;20502;-69
2022/09/28 03:16:07;;;;;;;5.72;4.00;;;9.10;99.90;;;;;;4984671;28;20477;-69
2022/09/28 03:18:40;;;;;;;8.73;3.45;;;9.10;99.90;;;;;;4992328;28;20194;-69
2022/09/28 03:21:11;;;;;;;7.18;4.38;;;9.10;99.90;;;;;;4993331;28;20627;-69
2022/09/28 03:23:39;;;;;;;6.50;3.70;;;9.10;99.90;;;;;;4993388;28;20201;-69
2022/09/28 03:26:08;;;;;;;7.25;4.38;;;9.00;99.90;;;;;;5008022;28;20308;-69
2022/09/28 03:28:37;;;;;;;11.32;4.78;;;9.00;99.90;;;;;;5004001;28;20293;-70
2022/09/28 03:31:08;;;;;;;7.57;3.83;;;9.00;99.90;;;;;;4993518;28;20193;-69
2022/09/28 03:33:37;;;;;;;5.32;4.15;;;9.00;99.90;;;;;;5010823;28;20287;-69
2022/09/28 03:36:07;;;;;;;4.82;3.92;;;9.00;99.90;;;;;;5010690;28;20218;-69
2022/09/28 03:38:37;;;;;;;6.55;4.90;;;8.90;99.90;;;;;;4990454;28;20211;-69
2022/09/28 03:41:08;;;;;;;6.53;4.05;;;8.90;99.90;;;;;;4988460;28;20226;-69
2022/09/28 03:43:40;;;;;;;5.78;4.95;;;8.90;99.90;;;;;;5002226;28;20194;-69
2022/09/28 03:46:10;;;;;;;7.25;4.60;;;9.00;99.90;;;;;;5002119;28;20209;-69
2022/09/28 03:48:44;;;;;;;5.45;4.05;;;9.00;99.90;;;;;;5002094;28;20541;-70
2022/09/28 03:51:13;;;;;;;5.88;4.13;;;8.90;99.90;;;;;;4987653;28;20630;-69
2022/09/28 03:53:41;;;;;;;16.10;5.07;;;8.90;99.90;;;;;;4994313;28;20216;-69
2022/09/28 03:56:14;;;;;;;6.07;5.40;;;9.00;99.90;;;;;;4993929;28;20226;-69
2022/09/28 03:58:42;;;;;;;5.47;4.45;;;9.00;99.90;;;;;;4987075;28;20205;-69
2022/09/28 04:01:15;;;;;;;6.03;3.65;;;8.90;99.90;;;;;;4994161;28;20292;-69
2022/09/28 04:03:47;;;;;;;6.03;4.25;;;9.00;99.90;;;;;;5000112;28;20616;-69
2022/09/28 04:06:16;;;;;;;7.57;3.83;;;9.10;99.90;;;;;;4990916;28;20230;-69
2022/09/28 04:08:45;;;;;;;6.80;4.97;;;9.10;99.90;;;;;;4974511;28;20205;-69
2022/09/28 04:11:14;;;;;;;5.75;3.85;;;9.10;99.90;;;;;;4980681;28;20229;-69
2022/09/28 04:13:43;;;;;;;7.57;4.57;;;8.90;99.90;;;;;;4996942;28;20201;-70
2022/09/28 04:16:16;;;;;;;6.70;4.32;;;9.00;99.90;;;;;;4981661;28;20214;-69
2022/09/28 04:18:54;;;;;;;7.40;5.30;;;9.10;99.90;;;;;;4982287;28;20260;-70
2022/09/28 04:21:45;;;;;;;10.73;5.07;;;9.10;99.90;;;;;;4996439;28;20202;-69
2022/09/28 04:24:15;;;;;;;7.60;4.87;;;9.10;99.90;;;;;;4996100;28;20218;-70
2022/09/28 04:26:43;;;;;;;8.65;5.25;;;9.10;99.90;;;;;;5014024;28;20483;-69
2022/09/28 04:29:14;;;;;;;5.03;4.35;;;9.10;99.90;;;;;;4996229;28;20293;-68
2022/09/28 04:31:55;;;;;;;6.93;4.57;;;9.00;99.90;;;;;;4996733;28;20182;-68
2022/09/28 04:34:35;;;;;;;10.30;5.95;;;9.00;99.90;;;;;;4995943;28;20249;-68
2022/09/28 04:37:10;;;;;;;6.60;4.40;;;9.10;99.90;;;;;;4995634;28;20248;-68
2022/09/28 04:39:40;;;;;;;8.02;4.20;;;9.10;99.90;;;;;;4989225;28;20209;-67
2022/09/28 04:42:16;;;;;;;7.93;4.45;;;9.10;99.90;;;;;;4995864;28;20204;-68
2022/09/28 04:44:45;;;;;;;6.28;4.28;;;9.00;99.90;;;;;;4995847;28;20725;-70
2022/09/28 04:47:15;;;;;;;7.30;4.60;;;9.10;99.90;;;;;;4996003;28;20703;-68
2022/09/28 04:50:03;;;;;;;6.53;4.95;;;9.10;99.90;;;;;;5000569;28;20545;-69
2022/09/28 04:52:36;;;;;;;11.80;5.85;;;9.00;99.90;;;;;;4995272;28;20619;-69
2022/09/28 04:55:06;;;;;;;7.00;5.75;;;9.00;99.90;;;;;;4995399;28;20213;-69
2022/09/28 04:57:35;;;;;;;6.00;4.85;;;9.00;99.90;;;;;;4995238;28;20624;-69
2022/09/28 05:00:05;;;;;;;7.50;4.28;;;9.00;99.90;;;;;;4987596;28;20199;-69
2022/09/28 05:02:37;;;;;;;5.65;4.22;;;9.00;99.90;;;;;;4994400;28;20199;-69
2022/09/28 05:05:25;;;;;;;6.68;4.53;;;9.10;99.90;;;;;;5010169;28;20602;-69
2022/09/28 05:08:09;;;;;;;7.00;6.27;;;9.10;99.90;;;;;;5011345;28;20182;-69
2022/09/28 05:10:39;;;;;;;8.32;5.00;;;9.10;99.90;;;;;;4989155;28;20439;-70
2022/09/28 05:13:07;;;;;;;6.80;4.13;;;9.20;99.90;;;;;;4989762;28;20226;-70
2022/09/28 05:15:36;;;;;;;8.52;5.85;;;9.20;99.90;;;;;;4989047;28;20465;-70
2022/09/28 05:18:08;;;;;;;5.57;4.53;;;9.10;99.90;;;;;;4993290;28;20313;-70
2022/09/28 05:20:47;;;;;;;6.38;4.68;;;9.10;99.90;;;;;;4995824;28;20198;-70
2022/09/28 05:23:16;;;;;;;8.80;5.13;;;9.10;99.90;;;;;;4999567;28;20199;-69
2022/09/28 05:25:46;;;;;;;6.97;4.90;;;9.10;99.90;;;;;;5001013;28;20452;-70
2022/09/28 05:28:27;;;;;;;7.80;5.88;;;9.00;99.90;;;;;;4995566;28;20212;-70
2022/09/28 05:31:33;;;;;;;11.23;7.63;;;8.90;99.90;;;;;;4921757;29;20701;-68
2022/09/28 05:34:14;;;;;;;7.75;5.30;;;8.80;99.90;;;;;;4927133;29;20214;-69
2022/09/28 05:36:44;;;;;;;8.98;5.88;;;8.90;99.90;;;;;;4952957;28;20210;-70
2022/09/28 05:39:13;;;;;;;7.35;5.35;;;8.90;99.90;;;;;;4992487;28;20221;-69
2022/09/28 05:41:41;;;;;;;12.50;5.80;;;8.90;99.90;;;;;;5013014;28;20197;-69
2022/09/28 05:44:10;;;;;;;9.70;5.67;;;8.90;99.90;;;;;;4995085;28;20206;-69
2022/09/28 05:46:38;;;;;;;8.98;6.65;;;8.90;99.90;;;;;;4994837;28;20439;-69
2022/09/28 05:49:09;;;;;;;9.93;6.60;;;9.00;99.90;;;;;;4995030;28;20209;-70
2022/09/28 05:51:39;;;;;;;7.60;5.77;;;9.20;99.90;;;;;;5013922;28;20622;-69
2022/09/28 05:54:09;;;;;;;7.97;4.90;;;9.20;99.90;;;;;;4997406;28;20563;-70
2022/09/28 05:56:41;;;;;;;6.90;4.60;;;9.10;99.90;;;;;;5022525;23;20225;-69
2022/09/28 05:59:10;;;;;;;8.00;5.20;;;9.20;99.90;;;;;;5016548;28;20672;-69
2022/09/28 06:01:39;;;;;;;7.60;4.80;;;9.20;99.90;;;;;;5011964;28;20448;-70
2022/09/28 06:04:10;;;;;;;7.45;5.50;;;9.20;99.90;;;;;;5020997;28;20445;-68
2022/09/28 06:06:43;;;;;;;6.80;4.40;;;9.10;99.90;;;;;;5016788;28;20205;-68
2022/09/28 06:09:11;;;;;;;10.30;5.20;;;9.20;99.90;;;;;;5011660;28;20468;-71
2022/09/28 06:12:06;;;;;;;9.40;5.70;;;9.20;99.90;;;;;;4997879;28;20522;-69
2022/09/28 06:14:41;;;;;;;10.70;5.60;;;9.30;99.90;;;;;;5009788;28;20450;-70
2022/09/28 06:17:11;;;;;;;15.40;5.37;;;9.40;99.90;;;;;;5019025;28;20425;-68
2022/09/28 06:19:39;;;;;;;7.87;5.80;;;9.60;99.90;;;;;;5016221;28;20474;-69
2022/09/28 06:22:25;;;;;;;6.47;4.57;;;9.80;99.90;;;;;;5029964;28;20425;-70
2022/09/28 06:25:09;;;;;;;11.70;4.80;;;10.00;99.90;;;;;;5002414;28;20434;-70
2022/09/28 06:27:41;;;;;;;7.43;4.90;;;10.00;99.90;;;;;;5036796;28;20907;-70
2022/09/28 06:30:11;;;;;;;9.20;5.73;;;10.00;99.90;;;;;;5007866;28;20430;-71
2022/09/28 06:32:40;;;;;;;10.37;5.50;;;10.10;99.90;;;;;;5011851;28;20597;-68
2022/09/28 06:39:16;;;;;;;8.10;5.10;;;10.30;99.90;;;;;;4963798;28;20879;-69
2022/09/28 06:41:44;;;;;;;13.30;4.93;;;10.40;1.00;;;;;;5016391;28;20450;-69
2022/09/28 06:44:54;;;;;;;9.43;5.83;;;10.40;6.70;;;;;;5006376;28;20447;-70
2022/09/28 06:47:58;;;;;;;9.77;5.57;;;10.50;1.00;;;;;;5005274;28;20542;-71
2022/09/28 06:50:37;;;;;;;9.30;6.60;;;10.80;1.00;;;;;;5031965;28;20790;-69
2022/09/28 06:53:14;;;;;;;8.07;5.83;;;11.00;1.00;;;;;;5017768;28;20764;-68
2022/09/28 06:56:09;;;;;;;11.17;5.97;;;11.00;99.90;;;;;;5017701;28;20711;-70
2022/09/28 06:58:37;;;;;;;20.00;8.07;;;11.00;99.90;;;;;;5029856;28;20527;-71
2022/09/28 07:01:06;;;;;;;15.33;7.37;;;11.10;99.90;;;;;;5012705;28;20449;-69
2022/09/28 07:03:55;;;;;;;11.47;5.70;;;11.10;99.90;;;;;;5003577;28;20414;-71
2022/09/28 07:06:47;;;;;;;16.93;8.20;;;11.10;99.90;;;;;;5031242;28;20475;-70
2022/09/28 07:09:34;;;;;;;12.40;7.10;;;11.20;99.90;;;;;;5030766;28;20891;-70
2022/09/28 07:12:23;;;;;;;12.63;6.87;;;11.20;99.90;;;;;;5011854;28;20447;-69
2022/09/28 07:15:03;;;;;;;21.57;8.20;;;11.10;99.90;;;;;;5011848;28;20504;-71
2022/09/28 07:17:33;;;;;;;11.73;7.47;;;11.00;99.90;;;;;;5012122;28;20737;-69
2022/09/28 07:20:15;;;;;;;9.23;6.23;;;11.00;99.90;;;;;;5006905;28;20411;-70
2022/09/28 07:22:53;;;;;;;13.30;7.30;;;11.10;99.90;;;;;;5012326;28;20418;-72
2022/09/28 07:25:24;;;;;;;15.07;7.50;;;11.00;99.90;;;;;;5012028;28;20473;-68
2022/09/28 07:28:21;;;;;;;8.40;5.80;;;11.10;99.90;;;;;;4998724;28;20661;-69
2022/09/28 07:31:19;;;;;;;9.20;7.50;;;11.20;99.90;;;;;;4975795;28;20415;-69
2022/09/28 07:34:06;;;;;;;13.70;7.53;;;11.30;99.90;;;;;;5030246;28;20402;-71
2022/09/28 07:37:01;;;;;;;9.57;7.00;;;11.40;99.90;;;;;;5013879;28;20523;-68
2022/09/28 07:39:29;;;;;;;12.33;7.10;;;11.40;99.90;;;;;;5013701;28;20432;-68
2022/09/28 07:41:57;;;;;;;18.00;8.37;;;11.50;99.90;;;;;;5014223;28;20950;-71
2022/09/28 07:44:33;;;;;;;12.80;7.60;;;11.70;99.90;;;;;;5007938;28;20451;-69
2022/09/28 07:47:02;;;;;;;14.00;9.97;;;11.60;99.90;;;;;;5012633;28;20459;-73
2022/09/28 07:49:51;;;;;;;15.63;8.80;;;11.50;99.90;;;;;;5019219;28;20507;-70
2022/09/28 07:52:36;;;;;;;12.87;7.37;;;11.60;99.90;;;;;;5013130;28;20443;-70
2022/09/28 07:55:19;;;;;;;9.37;6.70;;;11.60;99.90;;;;;;5014814;28;20445;-71
2022/09/28 07:57:54;;;;;;;10.13;7.30;;;11.70;99.90;;;;;;5034486;28;20408;-68
2022/09/28 08:00:40;;;;;;;11.57;7.40;;;11.80;99.90;;;;;;5016337;28;20442;-72
2022/09/28 08:03:09;;;;;;;9.50;6.93;;;12.00;99.90;;;;;;5016396;28;20471;-69
2022/09/28 08:05:39;;;;;;;9.50;7.00;;;11.80;99.90;;;;;;5034552;28;20557;-70
2022/09/28 08:08:07;;;;;;;12.10;7.00;;;11.90;99.90;;;;;;5016007;28;20477;-70
2022/09/28 08:10:36;;;;;;;16.10;8.03;;;12.00;99.90;;;;;;5015979;28;20412;-70
2022/09/28 08:13:24;;;;;;;15.90;7.80;;;12.20;99.90;;;;;;5011547;28;20443;-72
2022/09/28 08:16:15;;;;;;;11.70;7.10;;;12.40;99.90;;;;;;5015772;28;20833;-71
2022/09/28 08:18:51;;;;;;;15.80;8.30;;;12.60;99.90;;;;;;5015020;28;20410;-71
2022/09/28 08:24:07;;;;;;;9.43;7.00;;;12.30;99.90;;;;;;5014617;28;20485;-70
2022/09/28 08:26:36;;;;;;;12.10;7.63;;;12.30;98.40;;;;;;5013960;28;20472;-70
2022/09/28 08:29:05;;;;;;;9.43;7.40;;;12.30;99.90;;;;;;5014325;28;20438;-71
2022/09/28 08:31:48;;;;;;;8.20;7.40;;;12.40;99.90;;;;;;5014074;28;20410;-71
2022/09/28 08:34:41;;;;;;;8.03;5.90;;;12.70;99.90;;;;;;5021180;28;20813;-71
2022/09/28 08:37:30;;;;;;;8.60;6.83;;;12.90;88.30;;;;;;5011889;28;20410;-73
2022/09/28 08:39:58;;;;;;;11.50;8.23;;;13.00;78.40;;;;;;5020872;28;20422;-70
2022/09/28 08:42:58;;;;;;;10.60;7.60;;;13.00;82.00;;;;;;4974540;28;20511;-70
2022/09/28 08:45:50;;;;;;;8.70;6.93;;;13.30;76.90;;;;;;5027180;28;21037;-69
2022/09/28 08:48:44;;;;;;;11.27;7.60;;;13.30;61.50;;;;;;5014172;28;20825;-68
2022/09/28 08:51:55;;;;;;;7.60;6.43;;;13.30;69.40;;;;;;5029993;28;20437;-70
2022/09/28 08:54:49;;;;;;;10.40;7.80;;;13.10;56.20;;;;;;4998348;28;20464;-71
2022/09/28 08:57:32;;;;;;;9.63;7.63;;;13.10;54.50;;;;;;5014819;28;20939;-70
2022/09/28 09:00:03;;;;;;;8.33;6.70;;;13.20;54.10;;;;;;5014108;28;20409;-71
2022/09/28 09:02:41;;;;;;;8.85;7.00;;;13.20;56.50;;;;;;5010478;28;20435;-70
2022/09/28 09:05:42;;;;;;;11.17;7.90;;;13.60;50.00;;;;;;5007674;28;20213;-69
2022/09/28 09:08:29;;;;;;;8.80;7.70;;;13.60;40.80;;;;;;5031733;28;20442;-70
2022/09/28 09:11:07;;;;;;;6.90;5.67;;;13.70;41.00;;;;;;5013672;28;20448;-70
2022/09/28 09:14:09;;;;;;;10.50;7.13;;;13.70;39.40;;;;;;5014057;28;20414;-70
2022/09/28 09:16:49;;;;;;;9.13;6.00;;;13.50;34.80;;;;;;5013764;28;20426;-70
2022/09/28 09:19:51;;;;;;;7.20;6.40;;;13.40;35.70;;;;;;5032452;28;20485;-69
2022/09/28 09:22:57;;;;;;;8.13;6.10;;;13.50;36.40;;;;;;5022583;28;20421;-69
2022/09/28 09:25:28;;;;;;;9.90;4.87;;;13.70;31.20;;;;;;5022112;28;20460;-69
2022/09/28 09:28:42;;;;;;;5.97;5.33;;;13.60;25.90;;;;;;5015668;28;20775;-69
2022/09/28 09:31:26;;;;;;;7.90;5.13;;;13.70;23.30;;;;;;5014296;28;20444;-70
2022/09/28 09:34:34;;;;;;;7.60;5.23;;;13.80;22.70;;;;;;5013932;28;20483;-69
2022/09/28 09:37:59;;;;;;;6.67;5.20;;;14.50;23.60;;;;;;5010622;28;20486;-70
2022/09/28 09:41:02;;;;;;;6.13;5.10;;;14.30;17.20;;;;;;5035680;28;20505;-70
2022/09/28 09:44:11;;;;;;;9.30;5.03;;;14.70;13.10;;;;;;5014491;28;20522;-69
2022/09/28 09:46:56;;;;;;;5.80;5.23;;;14.90;11.70;;;;;;5026544;28;20431;-69
2022/09/28 09:49:36;;;;;;;9.63;6.20;;;14.80;9.50;;;;;;5008189;28;20988;-71
2022/09/28 09:52:10;;;;;;;6.50;4.20;;;14.50;6.00;;;;;;5030668;28;20436;-69
2022/09/28 09:54:44;;;;;;;5.93;3.93;;;14.60;5.30;;;;;;5012575;28;20498;-71
2022/09/28 09:57:30;;;;;;;3.53;3.23;;;14.90;1.00;;;;;;5012356;28;20403;-71
2022/09/28 10:00:05;;;;;;;5.10;3.50;;;15.30;1.00;;;;;;5001171;28;20540;-70
2022/09/28 10:02:53;;;;;;;5.53;4.10;;;14.90;1.00;;;;;;5006235;28;20421;-69
2022/09/28 10:05:36;;;;;;;4.57;4.07;;;15.50;1.00;;;;;;5012620;28;20522;-70
2022/09/28 10:08:13;;;;;;;5.97;3.90;;;15.70;1.00;;;;;;5017033;28;20851;-71
2022/09/28 10:10:49;;;;;;;7.47;3.30;;;15.70;1.00;;;;;;5013341;28;20414;-70
2022/09/28 10:13:20;;;;;;;4.53;3.67;;;15.30;1.00;;;;;;5005467;28;20423;-67
2022/09/28 10:15:50;;;;;;;3.60;3.30;;;15.70;1.00;;;;;;5001881;28;20472;-69
2022/09/28 10:18:45;;;;;;;3.90;2.90;;;15.60;1.00;;;;;;5019200;28;20457;-69
2022/09/28 10:21:36;;;;;;;3.80;2.63;;;15.50;1.00;;;;;;5015237;28;20403;-70
2022/09/28 10:24:29;;;;;;;3.80;2.93;;;15.40;1.00;;;;;;5020036;28;20446;-69
2022/09/28 10:27:05;;;;;;;6.07;3.00;;;15.10;1.00;;;;;;5007786;28;20552;-69
2022/09/28 10:29:49;;;;;;;5.90;3.17;;;15.10;1.00;;;;;;5008982;28;20446;-68
2022/09/28 10:32:21;;;;;;;3.50;2.43;;;14.80;1.00;;;;;;5011897;28;20432;-68
2022/09/28 10:34:53;;;;;;;3.63;2.57;;;14.70;1.00;;;;;;5013123;28;20462;-69
2022/09/28 10:37:27;;;;;;;2.70;1.87;;;14.80;1.00;;;;;;5008500;28;20480;-69
2022/09/28 10:40:29;;;;;;;2.40;2.13;;;15.20;1.00;;;;;;5002142;28;20920;-69
2022/09/28 10:43:07;;;;;;;2.90;1.73;;;14.90;1.00;;;;;;5015561;28;20424;-68
2022/09/28 10:45:37;;;;;;;2.73;2.13;;;14.80;1.00;;;;;;5029171;28;20442;-70
2022/09/28 10:48:15;;;;;;;2.70;2.20;;;14.40;1.00;;;;;;5005747;28;20545;-68
2022/09/28 10:50:57;;;;;;;7.33;6.13;;;14.40;1.00;;;;;;5025981;28;20472;-69
2022/09/28 10:53:26;;;;;;;2.30;1.57;;;14.00;1.00;;;;;;5004594;28;20426;-69
2022/09/28 10:56:06;;;;;;;3.57;1.30;;;13.90;1.00;;;;;;5018704;28;20964;-69
2022/09/28 10:58:40;;;;;;;2.87;1.63;;;13.90;1.00;;;;;;5006846;28;20444;-69
2022/09/28 11:01:17;;;;;;;8.20;1.90;;;13.60;1.00;;;;;;5007938;28;20451;-70
2022/09/28 11:03:52;;;;;;;5.57;1.83;;;13.50;1.00;;;;;;5004161;28;20983;-70
2022/09/28 11:06:26;;;;;;;6.03;2.20;;;13.60;1.00;;;;;;5006145;28;20957;-70
2022/09/28 11:08:58;;;;;;;2.40;1.77;;;13.60;1.00;;;;;;5002731;28;20477;-71
2022/09/28 11:11:30;;;;;;;5.43;1.80;;;13.40;1.00;;;;;;5003216;28;20404;-71
2022/09/28 11:14:23;;;;;;;2.20;1.63;;;13.30;1.00;;;;;;5010249;28;20460;-70
2022/09/28 11:17:25;;;;;;;5.37;2.20;;;13.40;1.00;;;;;;5021737;28;20445;-69
2022/09/28 11:19:54;;;;;;;4.03;2.30;;;13.40;1.00;;;;;;5030104;28;20434;-68
2022/09/28 11:22:27;;;;;;;2.93;2.37;;;13.20;1.00;;;;;;5011883;28;20436;-70
2022/09/28 11:25:20;;;;;;;4.00;2.17;;;13.00;1.00;;;;;;5028652;28;20423;-71
2022/09/28 11:28:03;;;;;;;3.63;2.33;;;12.80;1.00;;;;;;5013613;28;20458;-71
2022/09/28 11:30:39;;;;;;;4.33;3.40;;;12.70;1.00;;;;;;5016809;28;20437;-71
2022/09/28 11:33:31;;;;;;;3.53;2.57;;;12.60;1.00;;;;;;5032653;28;20406;-70
2022/09/28 11:36:47;;;;;;;4.30;3.90;;;12.70;3.40;;;;;;5029275;28;20480;-71
2022/09/28 11:39:25;;;;;;;8.33;3.10;;;12.80;5.70;;;;;;5010614;28;20440;-71
2022/09/28 11:42:04;;;;;;;4.00;1.93;;;13.00;4.70;;;;;;5016368;28;20817;-71
2022/09/28 11:44:43;;;;;;;2.80;2.20;;;13.20;1.00;;;;;;5002940;28;20449;-72
2022/09/28 11:51:00;;;;;;;5.80;2.40;;;13.90;1.00;;;;;;5000955;28;20410;-71
2022/09/28 11:53:34;;;;;;;3.57;2.67;;;14.10;1.00;;;;;;5013951;28;20546;-69
2022/09/28 11:56:11;;;;;;;9.53;2.60;;;14.30;1.00;;;;;;5040595;22;20452;-69
2022/09/28 11:58:44;;;;;;;3.50;1.87;;;14.50;1.00;;;;;;4993081;28;20416;-71
2022/09/28 12:01:21;;;;;;;4.20;3.50;;;14.40;1.00;;;;;;4966569;28;20444;-70
2022/09/28 12:04:23;;;;;;;3.00;1.60;;;14.50;1.00;;;;;;4984664;28;20628;-70
2022/09/28 12:06:57;;;;;;;1.83;1.47;;;14.60;1.00;;;;;;4979959;28;20428;-71
2022/09/28 12:09:36;;;;;;;3.20;1.50;;;14.80;1.00;;;;;;5002355;23;20560;-73
2022/09/28 12:12:23;;;;;;;2.80;1.23;;;15.00;1.00;;;;;;5009159;28;20422;-72
2022/09/28 12:14:59;;;;;;;5.37;2.00;;;15.10;1.00;;;;;;4985256;28;20538;-71
2022/09/28 12:17:34;;;;;;;4.67;1.90;;;14.90;1.00;;;;;;4981859;28;20412;-73
2022/09/28 12:20:16;;;;;;;5.20;1.60;;;15.20;1.00;;;;;;4986623;28;20517;-72
2022/09/28 12:22:49;;;;;;;3.80;1.13;;;15.00;1.00;;;;;;4974700;28;20521;-72
2022/09/28 12:25:22;;;;;;;3.20;1.47;;;15.10;1.00;;;;;;4965135;28;20446;-70
2022/09/28 12:27:56;;;;;;;2.00;1.13;;;15.10;1.00;;;;;;5006253;28;21026;-71
2022/09/28 12:30:25;;;;;;;1.93;1.00;;;14.70;1.00;;;;;;4974680;28;20968;-73
2022/09/28 12:33:01;;;;;;;2.37;1.53;;;14.50;1.00;;;;;;4972044;28;20473;-72
2022/09/28 12:35:39;;;;;;;4.03;2.20;;;14.40;1.00;;;;;;4991213;28;20425;-70
2022/09/28 12:38:30;;;;;;;3.80;1.60;;;14.40;1.00;;;;;;4978674;28;20466;-74
2022/09/28 12:41:06;;;;;;;3.40;1.40;;;14.30;1.00;;;;;;4973273;28;20765;-71
2022/09/28 12:43:59;;;;;;;3.00;1.13;;;14.50;1.00;;;;;;4976456;28;20404;-72
2022/09/28 12:47:08;;;;;;;1.63;0.93;;;14.40;1.00;;;;;;4985027;28;20821;-73
2022/09/28 12:49:52;;;;;;;5.40;1.20;;;14.20;1.00;;;;;;4978247;28;20510;-73
2022/09/28 12:52:52;;;;;;;1.80;1.00;;;14.20;1.00;;;;;;4992135;28;20412;-73
2022/09/28 12:55:34;;;;;;;2.27;1.30;;;14.20;1.00;;;;;;4980669;28;20881;-73
2022/09/28 12:58:15;;;;;;;1.90;1.50;;;14.30;1.00;;;;;;4979927;28;20504;-74
2022/09/28 13:00:53;;;;;;;2.80;2.03;;;14.30;1.00;;;;;;4979797;28;20465;-71
2022/09/28 13:03:58;;;;;;;2.27;0.90;;;14.30;1.00;;;;;;4991014;28;20461;-72
2022/09/28 13:06:47;;;;;;;3.30;1.40;;;14.30;1.00;;;;;;4982392;28;20406;-73
2022/09/28 13:09:20;;;;;;;2.10;1.50;;;14.40;1.00;;;;;;4976674;28;20543;-73
2022/09/28 13:12:24;;;;;;;1.80;1.17;;;14.10;1.00;;;;;;4982722;28;20458;-72
2022/09/28 13:15:34;;;;;;;1.37;0.90;;;14.00;1.00;;;;;;4971616;28;20516;-73
2022/09/28 13:18:10;;;;;;;7.07;1.57;;;13.90;1.00;;;;;;4987409;28;20672;-73
2022/09/28 13:20:49;;;;;;;1.40;0.93;;;13.80;1.00;;;;;;4978943;28;20422;-71
2022/09/28 13:23:22;;;;;;;1.30;0.83;;;14.10;1.00;;;;;;4975457;28;20493;-72
2022/09/28 13:25:57;;;;;;;10.10;1.90;;;14.00;1.00;;;;;;4983652;28;20469;-74
2022/09/28 13:28:27;;;;;;;3.30;1.80;;;13.80;1.00;;;;;;4981523;28;20397;-72
2022/09/28 13:30:58;;;;;;;2.97;1.30;;;13.80;1.00;;;;;;4975797;28;20445;-73
2022/09/28 13:33:35;;;;;;;2.47;1.43;;;13.80;1.00;;;;;;4986473;28;20404;-72
2022/09/28 13:36:26;;;;;;;3.90;2.03;;;14.00;1.00;;;;;;4975664;28;20861;-72
2022/09/28 13:38:58;;;;;;;2.00;0.80;;;14.10;1.00;;;;;;4975348;28;20460;-73
2022/09/28 13:41:30;;;;;;;2.03;1.07;;;14.20;1.00;;;;;;4981474;28;20427;-73
2022/09/28 13:44:35;;;;;;;1.03;0.70;;;14.20;1.00;;;;;;4974935;28;20686;-73
2022/09/28 13:47:25;;;;;;;1.63;0.90;;;14.00;1.00;;;;;;4975265;28;20621;-72
2022/09/28 13:50:10;;;;;;;3.60;1.23;;;14.00;1.00;;;;;;4969718;28;20469;-70
2022/09/28 13:52:45;;;;;;;5.60;1.70;;;13.80;1.00;;;;;;4972854;28;20401;-72
2022/09/28 13:55:32;;;;;;;1.47;1.17;;;13.70;1.00;;;;;;4974764;28;20454;-71
2022/09/28 13:58:05;;;;;;;2.73;1.00;;;13.80;1.00;;;;;;4977653;28;20435;-73
2022/09/28 14:00:38;;;;;;;4.30;0.93;;;13.90;1.00;;;;;;4970663;28;20924;-74
2022/09/28 14:03:13;;;;;;;4.70;1.60;;;13.70;1.00;;;;;;4975092;28;20401;-74